createdAt,value
2019-01-26T00:01:50.175Z,100212.16
2019-01-26T00:04:22.198Z,100207.49
2019-01-26T00:06:59.602Z,100203.66
2019-01-26T00:09:30.028Z,100205.78
2019-01-26T00:12:01.633Z,100203.17
2019-01-26T00:14:41.988Z,100214.00
2019-01-26T00:17:13.999Z,100214.00
2019-01-26T00:19:58.034Z,100209.14
2019-01-26T00:22:31.389Z,100201.12
2019-01-26T00:25:14.501Z,100192.81
2019-01-26T00:27:45.745Z,100188.21
2019-01-26T00:30:17.996Z,100193.48
2019-01-26T00:32:58.908Z,100193.01
2019-01-26T00:35:36.044Z,100186.84
2019-01-26T00:38:10.834Z,100192.18
2019-01-26T00:40:45.543Z,100196.02
2019-01-26T00:43:27.509Z,100204.66
2019-01-26T00:46:07.641Z,100205.55
2019-01-26T00:48:42.168Z,100198.62
2019-01-26T00:51:17.335Z,100199.36
2019-01-26T00:53:59.142Z,100191.27
2019-01-26T00:56:36.618Z,100191.33
2019-01-26T00:59:23.051Z,100184.53
2019-01-26T01:02:00.253Z,100180.63
2019-01-26T01:04:42.588Z,100185.08
2019-01-26T01:07:28.482Z,100172.41
2019-01-26T01:10:13.660Z,100180.82
2019-01-26T01:12:50.980Z,100183.30
2019-01-26T01:15:28.393Z,100188.16
2019-01-26T01:18:05.639Z,100184.25
2019-01-26T01:20:43.733Z,100176.91
2019-01-26T01:23:19.735Z,100164.36
2019-01-26T01:25:59.535Z,100168.39
2019-01-26T01:28:33.030Z,100161.66
2019-01-26T01:31:05.207Z,100164.67
2019-01-26T01:33:44.173Z,100176.05
2019-01-26T01:36:22.364Z,100179.55
2019-01-26T01:39:07.397Z,100171.98
2019-01-26T01:41:50.527Z,100173.05
2019-01-26T01:44:29.845Z,100168.61
2019-01-26T01:47:07.429Z,100172.52
2019-01-26T01:49:41.578Z,100160.14
2019-01-26T01:52:16.059Z,100159.79
2019-01-26T01:54:57.047Z,100156.41
2019-01-26T01:57:40.879Z,100152.92
2019-01-26T02:00:31.356Z,100156.95
2019-01-26T02:03:07.740Z,100160.03
2019-01-26T02:05:45.398Z,100165.13
2019-01-26T02:08:36.991Z,100145.63
2019-01-26T02:10:59.736Z,100152.15
2019-01-26T02:13:40.771Z,100144.92
2019-01-26T02:16:15.925Z,100139.41
2019-01-26T02:18:47.920Z,100149.42
2019-01-26T02:21:24.314Z,100141.38
2019-01-26T02:24:01.689Z,100144.45
2019-01-26T02:26:42.377Z,100134.44
2019-01-26T02:29:27.893Z,100128.34
2019-01-26T02:32:08.851Z,100126.27
2019-01-26T02:34:40.608Z,100115.83
2019-01-26T02:37:16.985Z,100111.98
2019-01-26T02:39:53.914Z,100121.11
2019-01-26T02:42:25.869Z,100111.27
2019-01-26T02:44:58.635Z,100119.50
2019-01-26T02:47:31.892Z,100134.31
2019-01-26T02:50:14.250Z,100136.92
2019-01-26T02:52:46.670Z,100133.48
2019-01-26T02:55:18.539Z,100126.61
2019-01-26T02:58:02.170Z,100120.16
2019-01-26T03:00:38.260Z,100114.16
2019-01-26T03:03:09.967Z,100111.14
2019-01-26T03:05:41.852Z,100118.48
2019-01-26T03:08:15.140Z,100114.10
2019-01-26T03:10:47.449Z,100112.50
2019-01-26T03:13:20.762Z,100115.64
2019-01-26T03:15:52.882Z,100103.48
2019-01-26T03:18:26.186Z,100107.04
2019-01-26T03:20:57.837Z,100106.21
2019-01-26T03:23:29.609Z,100083.20
2019-01-26T03:26:01.241Z,100086.17
2019-01-26T03:28:37.102Z,100075.91
2019-01-26T03:31:11.890Z,100074.97
2019-01-26T03:33:43.774Z,100064.53
2019-01-26T03:36:16.951Z,100070.28
2019-01-26T03:38:50.119Z,100063.87
2019-01-26T03:41:21.899Z,100063.09
2019-01-26T03:43:55.164Z,100058.88
2019-01-26T03:46:26.821Z,100059.66
2019-01-26T03:48:58.673Z,100056.57
2019-01-26T03:51:30.587Z,100059.70
2019-01-26T03:54:02.291Z,100048.55
2019-01-26T03:56:33.998Z,100043.33
2019-01-26T03:59:08.645Z,100048.55
2019-01-26T04:01:41.759Z,100045.94
2019-01-26T04:04:14.188Z,100062.37
2019-01-26T04:06:45.889Z,100064.03
2019-01-26T04:09:17.489Z,100064.87
2019-01-26T04:11:52.048Z,100073.28
2019-01-26T04:14:23.890Z,100075.89
2019-01-26T04:16:55.626Z,100072.86
2019-01-26T04:19:27.259Z,100072.44
2019-01-26T04:21:58.953Z,100069.78
2019-01-26T04:24:33.021Z,100073.58
2019-01-26T04:27:04.765Z,100079.62
2019-01-26T04:29:36.469Z,100083.08
2019-01-26T04:32:08.304Z,100079.22
2019-01-26T04:34:40.012Z,100068.25
2019-01-26T04:37:14.673Z,100073.47
2019-01-26T04:39:47.953Z,100073.58
2019-01-26T04:42:19.610Z,100076.25
2019-01-26T04:44:52.687Z,100073.33
2019-01-26T04:47:31.113Z,100070.30
2019-01-26T04:50:21.803Z,100059.34
2019-01-26T04:52:55.994Z,100053.19
2019-01-26T04:55:27.697Z,100051.77
2019-01-26T04:57:59.268Z,100045.08
2019-01-26T05:00:30.944Z,100063.70
2019-01-26T05:03:02.651Z,100062.98
2019-01-26T05:05:50.353Z,100055.52
2019-01-26T05:08:37.630Z,100041.53
2019-01-26T05:11:09.309Z,100036.59
2019-01-26T05:13:42.247Z,100044.83
2019-01-26T05:16:13.815Z,100046.97
2019-01-26T05:18:45.235Z,100040.45
2019-01-26T05:21:16.689Z,100041.33
2019-01-26T05:23:57.500Z,100047.44
2019-01-26T05:26:28.979Z,100051.30
2019-01-26T05:29:00.562Z,100055.62
2019-01-26T05:31:32.220Z,100053.49
2019-01-26T05:34:04.857Z,100058.29
2019-01-26T05:36:36.463Z,100049.16
2019-01-26T05:39:08.995Z,100058.29
2019-01-26T05:41:55.920Z,100065.39
2019-01-26T05:44:28.881Z,100058.52
2019-01-26T05:47:04.574Z,100055.84
2019-01-26T05:49:36.204Z,100058.88
2019-01-26T05:52:07.961Z,100059.59
2019-01-26T05:54:41.565Z,100052.55
2019-01-26T05:57:13.293Z,100049.05
2019-01-26T05:59:45.101Z,100047.58
2019-01-26T06:02:16.939Z,100048.77
2019-01-26T06:04:48.723Z,100052.38
2019-01-26T06:07:21.957Z,100042.83
2019-01-26T06:09:53.694Z,100061.31
2019-01-26T06:12:25.465Z,100054.44
2019-01-26T06:15:11.899Z,100062.20
2019-01-26T06:17:55.023Z,100058.54
2019-01-26T06:20:23.083Z,100064.59
2019-01-26T06:22:54.733Z,100060.62
2019-01-26T06:25:32.218Z,100070.34
2019-01-26T06:28:03.961Z,100076.69
2019-01-26T06:30:41.437Z,100068.75
2019-01-26T06:33:13.052Z,100071.77
2019-01-26T06:35:44.518Z,100060.92
2019-01-26T06:38:15.929Z,100060.67
2019-01-26T06:40:47.783Z,100065.42
2019-01-26T06:43:19.345Z,100070.28
2019-01-26T06:45:50.976Z,100059.38
2019-01-26T06:48:22.505Z,100059.73
2019-01-26T06:50:54.057Z,100061.87
2019-01-26T06:53:25.545Z,100062.04
2019-01-26T06:55:57.167Z,100062.98
2019-01-26T06:58:28.615Z,100066.48
2019-01-26T07:01:00.166Z,100075.16
2019-01-26T07:03:31.414Z,100070.25
2019-01-26T07:06:04.402Z,100072.33
2019-01-26T07:08:35.634Z,100066.75
2019-01-26T07:11:07.364Z,100071.72
2019-01-26T07:13:38.599Z,100065.36
2019-01-26T07:16:10.041Z,100076.80
2019-01-26T07:18:41.346Z,100071.37
2019-01-26T07:21:12.753Z,100074.87
2019-01-26T07:23:44.143Z,100063.08
2019-01-26T07:26:15.645Z,100064.08
2019-01-26T07:28:47.105Z,100072.02
2019-01-26T07:31:18.553Z,100055.73
2019-01-26T07:33:49.838Z,100061.51
2019-01-26T07:37:02.214Z,100066.12
2019-01-26T07:39:33.521Z,100068.73
2019-01-26T07:42:04.946Z,100072.43
2019-01-26T07:44:39.751Z,100076.66
2019-01-26T07:47:11.153Z,100078.38
2019-01-26T07:49:42.566Z,100073.31
2019-01-26T07:52:14.000Z,100072.17
2019-01-26T07:54:45.269Z,100068.37
2019-01-26T07:57:16.655Z,100066.47
2019-01-26T07:59:47.950Z,100061.61
2019-01-26T08:02:19.584Z,100066.59
2019-01-26T08:04:50.898Z,100064.64
2019-01-26T08:07:22.260Z,100056.50
2019-01-26T08:09:55.103Z,100056.97
2019-01-26T08:12:26.602Z,100050.44
2019-01-26T08:14:57.973Z,100047.84
2019-01-26T08:17:29.493Z,100043.19
2019-01-26T08:20:00.728Z,100046.22
2019-01-26T08:22:32.269Z,100040.52
2019-01-26T08:25:03.659Z,100039.63
2019-01-26T08:27:35.094Z,100031.75
2019-01-26T08:30:16.337Z,100027.52
2019-01-26T08:32:47.905Z,100025.06
2019-01-26T08:35:19.845Z,100024.86
2019-01-26T08:37:52.980Z,100017.29
2019-01-26T08:40:24.267Z,100012.38
2019-01-26T08:42:55.546Z,100007.00
2019-01-26T08:45:26.985Z,100004.96
2019-01-26T08:51:53.187Z,100005.00
2019-01-26T08:54:48.259Z,100011.52
2019-01-26T08:57:19.864Z,100016.80
2019-01-26T08:59:51.970Z,100026.04
2019-01-26T09:02:25.863Z,100036.16
2019-01-26T09:04:57.753Z,100036.69
2019-01-26T09:07:28.971Z,100039.41
2019-01-26T09:10:03.894Z,100032.12
2019-01-26T09:12:35.084Z,100039.04
2019-01-26T09:15:10.298Z,100034.14
2019-01-26T09:17:41.673Z,100032.08
2019-01-26T09:20:15.668Z,100040.02
2019-01-26T09:22:46.966Z,100036.84
2019-01-26T09:25:18.399Z,100032.12
2019-01-26T09:27:52.224Z,100042.25
2019-01-26T09:30:23.642Z,100038.00
2019-01-26T09:32:55.092Z,100036.36
2019-01-26T09:35:26.526Z,100025.52
2019-01-26T09:37:57.901Z,100030.87
2019-01-26T09:40:29.321Z,100027.13
2019-01-26T09:43:00.828Z,100022.12
2019-01-26T09:45:32.323Z,100023.59
2019-01-26T09:48:03.858Z,100019.76
2019-01-26T09:50:35.171Z,100018.07
2019-01-26T09:53:06.828Z,100009.25
2019-01-26T09:55:38.528Z,100011.61
2019-01-26T09:58:09.956Z,100014.27
2019-01-26T10:00:41.450Z,100014.39
2019-01-26T10:03:14.374Z,100014.55
2019-01-26T10:05:45.722Z,100016.99
2019-01-26T10:08:16.964Z,100006.22
2019-01-26T10:10:48.363Z,100012.11
2019-01-26T10:13:19.633Z,100015.81
2019-01-26T10:15:56.705Z,100000.67
2019-01-26T10:18:29.546Z,99993.39
2019-01-26T10:21:00.904Z,99991.53
2019-01-26T10:23:32.357Z,99992.28
2019-01-26T10:26:03.693Z,99990.47
2019-01-26T10:28:35.117Z,99987.92
2019-01-26T10:31:06.537Z,99984.80
2019-01-26T10:33:38.033Z,99980.84
2019-01-26T10:36:12.305Z,99985.23
2019-01-26T10:38:45.327Z,99969.56
2019-01-26T10:41:20.904Z,99971.90
2019-01-26T10:43:56.247Z,99975.05
2019-01-26T10:46:27.569Z,99971.77
2019-01-26T10:49:00.827Z,99965.36
2019-01-26T10:51:31.955Z,99969.00
2019-01-26T10:54:06.575Z,99979.56
2019-01-26T10:56:38.042Z,99985.11
2019-01-26T10:59:09.266Z,99986.66
2019-01-26T11:01:40.638Z,99973.28
2019-01-26T11:04:12.022Z,99977.01
2019-01-26T11:06:43.385Z,99975.28
2019-01-26T11:09:14.670Z,99969.78
2019-01-26T11:11:47.636Z,99958.91
2019-01-26T11:14:18.839Z,99951.67
2019-01-26T11:16:50.259Z,99943.88
2019-01-26T11:19:21.549Z,99942.37
2019-01-26T11:21:52.824Z,99948.89
2019-01-26T11:24:24.113Z,99945.55
2019-01-26T11:26:55.542Z,99945.84
2019-01-26T11:29:26.777Z,99938.30
2019-01-26T11:31:58.115Z,99942.69
2019-01-26T11:34:29.408Z,99936.88
2019-01-26T11:37:00.749Z,99931.11
2019-01-26T11:39:32.253Z,99928.69
2019-01-26T11:42:03.874Z,99926.47
2019-01-26T11:44:35.364Z,99910.50
2019-01-26T11:47:08.403Z,99905.75
2019-01-26T11:49:42.492Z,99905.05
2019-01-26T11:52:15.943Z,99905.59
2019-01-26T11:54:49.003Z,99899.84
2019-01-26T11:57:20.503Z,99904.59
2019-01-26T11:59:54.393Z,99907.98
2019-01-26T12:02:29.930Z,99906.83
2019-01-26T12:05:00.254Z,99903.67
2019-01-26T12:07:32.056Z,99904.41
2019-01-26T12:10:03.483Z,99901.33
2019-01-26T12:12:34.834Z,99904.38
2019-01-26T12:15:10.637Z,99899.28
2019-01-26T12:17:42.214Z,99882.82
2019-01-26T12:20:31.202Z,99890.50
2019-01-26T12:23:02.823Z,99893.30
2019-01-26T12:25:39.928Z,99886.38
2019-01-26T12:28:11.375Z,99884.97
2019-01-26T12:30:42.791Z,99875.38
2019-01-26T12:33:14.243Z,99871.08
2019-01-26T12:35:45.657Z,99876.69
2019-01-26T12:38:17.232Z,99873.60
2019-01-26T12:40:48.816Z,99877.89
2019-01-26T12:43:20.330Z,99876.97
2019-01-26T12:45:51.891Z,99871.34
2019-01-26T12:48:24.482Z,99867.77
2019-01-26T12:50:55.859Z,99866.53
2019-01-26T12:53:27.373Z,99866.92
2019-01-26T12:55:58.928Z,99863.37
2019-01-26T12:58:30.533Z,99856.63
2019-01-26T13:01:02.104Z,99849.48
2019-01-26T13:03:36.452Z,99842.61
2019-01-26T13:06:08.082Z,99852.98
2019-01-26T13:08:39.724Z,99851.70
2019-01-26T13:11:21.255Z,99847.60
2019-01-26T13:13:52.894Z,99852.80
2019-01-26T13:16:24.360Z,99846.11
2019-01-26T13:18:55.910Z,99840.84
2019-01-26T13:21:27.364Z,99828.59
2019-01-26T13:23:58.932Z,99840.80
2019-01-26T13:26:30.859Z,99835.06
2019-01-26T13:29:02.258Z,99835.98
2019-01-26T13:31:33.682Z,99832.98
2019-01-26T13:34:05.251Z,99828.48
2019-01-26T13:36:37.077Z,99824.98
2019-01-26T13:39:09.448Z,99824.06
2019-01-26T13:41:40.955Z,99812.28
2019-01-26T13:44:12.332Z,99816.13
2019-01-26T13:46:43.662Z,99822.25
2019-01-26T13:49:15.123Z,99817.83
2019-01-26T13:51:46.394Z,99822.19
2019-01-26T13:54:17.781Z,99818.95
2019-01-26T13:56:49.242Z,99818.45
2019-01-26T13:59:20.719Z,99813.99
2019-01-26T14:01:52.040Z,99810.84
2019-01-26T14:04:24.230Z,99810.77
2019-01-26T14:06:56.650Z,99805.58
2019-01-26T14:09:29.063Z,99795.53
2019-01-26T14:12:00.402Z,99798.57
2019-01-26T14:14:31.709Z,99799.38
2019-01-26T14:17:03.142Z,99792.48
2019-01-26T14:19:34.598Z,99789.88
2019-01-26T14:22:06.163Z,99789.45
2019-01-26T14:24:37.682Z,99780.25
2019-01-26T14:27:09.122Z,99786.80
2019-01-26T14:29:40.528Z,99786.34
2019-01-26T14:32:11.868Z,99780.91
2019-01-26T14:34:43.278Z,99786.22
2019-01-26T14:37:14.623Z,99773.98
2019-01-26T14:39:46.876Z,99770.98
2019-01-26T14:42:18.331Z,99773.56
2019-01-26T14:44:49.802Z,99771.38
2019-01-26T14:47:21.143Z,99767.02
2019-01-26T14:49:58.451Z,99773.06
2019-01-26T14:52:25.778Z,99763.45
2019-01-26T14:54:59.759Z,99756.95
2019-01-26T14:57:31.222Z,99761.33
2019-01-26T15:00:05.230Z,99757.44
2019-01-26T15:02:36.613Z,99758.30
2019-01-26T15:05:13.724Z,99750.44
2019-01-26T15:07:45.156Z,99744.72
2019-01-26T15:10:16.739Z,99736.80
2019-01-26T15:12:48.222Z,99735.06
2019-01-26T15:15:21.644Z,99739.80
2019-01-26T15:17:53.044Z,99731.09
2019-01-26T15:20:37.344Z,99727.17
2019-01-26T15:23:09.479Z,99728.52
2019-01-26T15:25:40.765Z,99722.90
2019-01-26T15:28:12.279Z,99715.44
2019-01-26T15:30:46.290Z,99708.47
2019-01-26T15:33:17.785Z,99709.36
2019-01-26T15:35:49.364Z,99696.28
2019-01-26T15:38:22.375Z,99691.93
2019-01-26T15:40:58.594Z,99692.35
2019-01-26T15:43:30.053Z,99690.13
2019-01-26T15:46:14.976Z,99684.86
2019-01-26T15:48:46.464Z,99682.56
2019-01-26T15:51:18.000Z,99684.19
2019-01-26T15:53:50.517Z,99682.45
2019-01-26T15:56:21.940Z,99679.34
2019-01-26T15:58:53.333Z,99679.31
2019-01-26T16:01:24.761Z,99677.93
2019-01-26T16:03:56.393Z,99674.39
2019-01-26T16:06:28.141Z,99674.39
2019-01-26T16:08:59.527Z,99670.05
2019-01-26T16:11:30.894Z,99672.27
2019-01-26T16:14:02.478Z,99661.78
2019-01-26T16:16:34.138Z,99662.66
2019-01-26T16:19:05.799Z,99659.20
2019-01-26T16:21:37.206Z,99656.13
2019-01-26T16:24:16.857Z,99657.89
2019-01-26T16:26:48.240Z,99660.43
2019-01-26T16:29:19.706Z,99654.25
2019-01-26T16:31:51.308Z,99645.48
2019-01-26T16:34:23.672Z,99647.17
2019-01-26T16:36:55.423Z,99636.69
2019-01-26T16:39:26.893Z,99631.38
2019-01-26T16:42:06.484Z,99631.73
2019-01-26T16:44:42.349Z,99635.20
2019-01-26T16:47:15.672Z,99626.43
2019-01-26T16:49:48.302Z,99629.93
2019-01-26T16:52:21.418Z,99625.94
2019-01-26T16:54:53.071Z,99625.94
2019-01-26T16:57:24.537Z,99611.98
2019-01-26T16:59:56.106Z,99618.09
2019-01-26T17:02:38.909Z,99615.97
2019-01-26T17:05:11.910Z,99611.20
2019-01-26T17:07:57.402Z,99611.28
2019-01-26T17:10:34.112Z,99609.55
2019-01-26T17:13:02.247Z,99603.47
2019-01-26T17:15:35.475Z,99603.47
2019-01-26T17:18:13.484Z,99589.48
2019-01-26T17:20:43.410Z,99586.83
2019-01-26T17:23:16.645Z,99582.94
2019-01-26T17:25:48.203Z,99587.67
2019-01-26T17:28:20.997Z,99579.38
2019-01-26T17:30:52.419Z,99576.76
2019-01-26T17:33:25.859Z,99580.26
2019-01-26T17:35:58.904Z,99572.91
2019-01-26T17:38:30.296Z,99573.41
2019-01-26T17:41:01.701Z,99570.36
2019-01-26T17:43:33.236Z,99563.38
2019-01-26T17:46:04.826Z,99557.19
2019-01-26T17:48:37.785Z,99553.66
2019-01-26T17:51:09.205Z,99547.94
2019-01-26T17:53:42.306Z,99559.23
2019-01-26T17:56:14.010Z,99546.14
2019-01-26T17:58:47.566Z,99543.91
2019-01-26T18:01:18.788Z,99536.53
2019-01-26T18:03:53.743Z,99539.60
2019-01-26T18:06:25.559Z,99539.17
2019-01-26T18:08:58.013Z,99534.41
2019-01-26T18:11:29.620Z,99529.18
2019-01-26T18:14:03.389Z,99527.87
2019-01-26T18:16:35.089Z,99527.48
2019-01-26T18:19:07.906Z,99521.41
2019-01-26T18:21:41.009Z,99523.20
2019-01-26T18:24:12.491Z,99516.28
2019-01-26T18:26:45.387Z,99510.66
2019-01-26T18:29:20.587Z,99506.70
2019-01-26T18:31:52.080Z,99505.89
2019-01-26T18:34:24.137Z,99502.00
2019-01-26T18:36:55.508Z,99499.02
2019-01-26T18:39:29.769Z,99497.75
2019-01-26T18:42:01.137Z,99494.28
2019-01-26T18:44:32.599Z,99482.94
2019-01-26T18:47:05.856Z,99481.17
2019-01-26T18:49:37.594Z,99467.68
2019-01-26T18:52:10.072Z,99457.67
2019-01-26T18:54:41.593Z,99459.87
2019-01-26T18:57:13.163Z,99456.83
2019-01-26T18:59:44.586Z,99445.09
2019-01-26T19:02:16.035Z,99449.89
2019-01-26T19:04:49.138Z,99450.77
2019-01-26T19:07:20.622Z,99439.44
2019-01-26T19:09:51.989Z,99438.16
2019-01-26T19:12:23.523Z,99439.04
2019-01-26T19:14:54.950Z,99428.16
2019-01-26T19:17:26.484Z,99429.44
2019-01-26T19:19:57.774Z,99421.13
2019-01-26T19:22:29.199Z,99425.08
2019-01-26T19:25:00.779Z,99415.93
2019-01-26T19:27:32.218Z,99407.14
2019-01-26T19:30:04.230Z,99408.88
2019-01-26T19:32:35.922Z,99404.92
2019-01-26T19:35:09.982Z,99401.00
2019-01-26T19:37:41.421Z,99390.09
2019-01-26T19:40:20.374Z,99394.04
2019-01-26T19:42:52.073Z,99388.81
2019-01-26T19:45:25.657Z,99383.98
2019-01-26T19:47:58.852Z,99384.37
2019-01-26T19:50:32.086Z,99374.31
2019-01-26T19:53:06.025Z,99368.17
2019-01-26T19:55:42.092Z,99364.66
2019-01-26T19:58:14.040Z,99352.40
2019-01-26T20:00:46.864Z,99353.25
2019-01-26T20:03:19.450Z,99347.11
2019-01-26T20:05:52.089Z,99337.11
2019-01-26T20:08:24.700Z,99330.13
2019-01-26T20:10:57.231Z,99330.55
2019-01-26T20:13:28.729Z,99321.41
2019-01-26T20:16:03.194Z,99313.98
2019-01-26T20:18:34.794Z,99310.48
2019-01-26T20:21:06.550Z,99300.91
2019-01-26T20:23:38.196Z,99297.45
2019-01-26T20:26:12.395Z,99297.91
2019-01-26T20:28:44.168Z,99284.41
2019-01-26T20:31:15.920Z,99273.95
2019-01-26T20:33:48.771Z,99272.22
2019-01-26T20:36:21.925Z,99270.03
2019-01-26T20:38:53.443Z,99266.51
2019-01-26T20:41:25.017Z,99257.78
2019-01-26T20:43:56.612Z,99255.14
2019-01-26T20:46:28.341Z,99255.57
2019-01-26T20:49:03.363Z,99245.54
2019-01-26T20:51:35.024Z,99231.59
2019-01-26T20:54:06.632Z,99236.80
2019-01-26T20:56:38.487Z,99223.70
2019-01-26T20:59:10.048Z,99215.45
2019-01-26T21:01:41.728Z,99209.32
2019-01-26T21:04:13.208Z,99212.39
2019-01-26T21:06:44.751Z,99205.43
2019-01-26T21:09:16.360Z,99200.69
2019-01-26T21:11:47.972Z,99194.15
2019-01-26T21:14:19.573Z,99190.23
2019-01-26T21:16:51.035Z,99194.17
2019-01-26T21:19:22.661Z,99188.04
2019-01-26T21:21:54.363Z,99172.84
2019-01-26T21:24:25.803Z,99170.65
2019-01-26T21:26:57.387Z,99168.02
2019-01-26T21:29:28.995Z,99159.34
2019-01-26T21:32:00.537Z,99160.17
2019-01-26T21:34:38.883Z,99150.59
2019-01-26T21:37:11.042Z,99143.20
2019-01-26T21:39:42.662Z,99139.73
2019-01-26T21:42:14.133Z,99142.42
2019-01-26T21:44:45.621Z,99133.28
2019-01-26T21:47:17.147Z,99124.98
2019-01-26T21:49:48.475Z,99126.77
2019-01-26T21:52:19.946Z,99118.47
2019-01-26T21:54:51.273Z,99113.24
2019-01-26T21:57:22.746Z,99113.24
2019-01-26T21:59:54.247Z,99104.95
2019-01-26T22:02:25.648Z,99110.20
2019-01-26T22:04:56.987Z,99105.42
2019-01-26T22:07:28.293Z,99099.31
2019-01-26T22:09:59.982Z,99095.42
2019-01-26T22:12:31.470Z,99094.56
2019-01-26T22:15:04.838Z,99095.06
2019-01-26T22:17:36.275Z,99090.70
2019-01-26T22:20:17.486Z,99082.89
2019-01-26T22:22:49.663Z,99087.69
2019-01-26T22:25:21.572Z,99078.09
2019-01-26T22:27:54.153Z,99075.02
2019-01-26T22:30:29.200Z,99068.06
2019-01-26T22:33:00.562Z,99061.07
2019-01-26T22:35:31.968Z,99054.53
2019-01-26T22:38:03.299Z,99055.39
2019-01-26T22:40:36.408Z,99045.80
2019-01-26T22:43:07.875Z,99035.81
2019-01-26T22:45:39.431Z,99028.83
2019-01-26T22:48:11.654Z,99027.52
2019-01-26T22:50:43.205Z,99017.94
2019-01-26T22:53:14.781Z,99017.04
2019-01-26T22:55:46.295Z,99008.77
2019-01-26T22:58:17.947Z,99009.20
2019-01-26T23:01:00.341Z,99007.46
2019-01-26T23:03:43.431Z,98997.44
2019-01-26T23:06:48.867Z,98997.84
2019-01-26T23:09:30.372Z,98986.55
2019-01-26T23:12:17.586Z,98983.50
2019-01-26T23:15:42.230Z,98976.11
2019-01-26T23:18:38.774Z,98982.22
2019-01-26T23:21:23.201Z,98970.92
2019-01-26T23:24:23.804Z,98972.27
2019-01-26T23:27:32.782Z,98964.89
2019-01-26T23:30:19.844Z,98946.22
2019-01-26T23:32:51.105Z,98940.18
2019-01-26T23:35:22.906Z,98928.05
2019-01-26T23:37:54.426Z,98931.12
2019-01-26T23:40:25.931Z,98915.45
2019-01-26T23:42:57.375Z,98915.89
2019-01-26T23:45:28.835Z,98901.92
2019-01-26T23:48:01.215Z,98893.61
2019-01-26T23:50:32.706Z,98883.95
2019-01-26T23:53:04.208Z,98886.54
2019-01-26T23:55:35.770Z,98881.28
2019-01-26T23:58:07.431Z,98874.31
